Time;durP1;ratioP1;P1;durP2;ratioP2;P2;SDS_P1;SDS_P2;PMS_P1;PMS_P2;Temp;Humidity;BMP_temperature;BMP_pressure;BME280_temperature;BME280_humidity;BME280_pressure;Samples;Min_cycle;Max_cycle;Signal;HPM_P1;HPM_P2
2021/09/02 00:00:48;;;;;;;6.38;4.40;;;;;;;15.87;74.44;103029.41;5047622;28;20100;-71
2021/09/02 00:03:14;;;;;;;9.25;4.30;;;;;;;15.86;74.69;103033.00;5047658;28;20017;-70
2021/09/02 00:05:40;;;;;;;9.38;4.80;;;;;;;15.80;74.40;103030.50;5047969;28;20029;-71
2021/09/02 00:08:06;;;;;;;8.00;4.18;;;;;;;15.80;72.68;103024.28;5048850;28;20430;-71
2021/09/02 00:10:32;;;;;;;8.98;3.72;;;;;;;15.81;73.64;103028.72;5048614;28;20037;-70
2021/09/02 00:12:58;;;;;;;8.02;3.92;;;;;;;15.80;73.75;103032.31;5051489;28;20029;-71
2021/09/02 00:15:23;;;;;;;7.97;4.40;;;;;;;15.78;73.89;103027.00;5051831;28;20044;-70
2021/09/02 00:17:48;;;;;;;7.18;4.30;;;;;;;15.76;73.78;103020.84;5052895;28;20033;-71
2021/09/02 00:20:14;;;;;;;7.70;4.38;;;;;;;15.73;73.58;103010.25;5051799;28;20115;-71
2021/09/02 00:22:40;;;;;;;7.28;4.65;;;;;;;15.77;73.68;103019.03;5051645;28;20422;-71
2021/09/02 00:25:05;;;;;;;8.32;4.53;;;;;;;15.80;73.72;103021.63;5050998;28;20434;-71
2021/09/02 00:27:31;;;;;;;9.18;4.40;;;;;;;15.80;73.96;103022.47;5052825;28;20036;-70
2021/09/02 00:29:56;;;;;;;8.13;4.10;;;;;;;15.80;73.84;103021.63;5051373;28;20041;-71
2021/09/02 00:32:22;;;;;;;6.18;4.05;;;;;;;15.75;74.21;103012.88;5051281;28;20029;-73
2021/09/02 00:34:47;;;;;;;8.05;4.53;;;;;;;15.76;74.57;103014.63;5023052;28;20021;-71
2021/09/02 00:37:12;;;;;;;6.75;4.07;;;;;;;15.78;73.65;103010.09;5031275;28;20037;-71
2021/09/02 00:39:38;;;;;;;7.30;4.22;;;;;;;15.78;73.06;103007.41;5047013;28;20173;-72
2021/09/02 00:42:03;;;;;;;7.93;4.18;;;;;;;15.77;73.46;103011.00;5069081;28;20080;-71
2021/09/02 00:44:36;;;;;;;7.72;4.60;;;;;;;15.75;74.59;103011.06;5065203;28;20041;-70
2021/09/02 00:47:04;;;;;;;8.30;4.43;;;;;;;15.73;74.83;103015.59;5051119;28;20048;-70
2021/09/02 00:49:29;;;;;;;6.15;3.67;;;;;;;15.75;74.36;103005.72;5051969;28;20033;-70
2021/09/02 00:51:57;;;;;;;7.78;4.15;;;;;;;15.71;74.85;103009.41;5051560;28;20337;-71
2021/09/02 00:54:22;;;;;;;6.75;3.72;;;;;;;15.65;75.43;103005.16;5032492;28;20052;-72
2021/09/02 00:56:47;;;;;;;7.38;4.28;;;;;;;15.66;75.22;103003.34;5050465;28;20029;-71
2021/09/02 00:59:13;;;;;;;8.82;4.50;;;;;;;15.63;75.41;102996.31;5050854;28;20097;-70
2021/09/02 01:01:38;;;;;;;8.52;4.28;;;;;;;15.60;75.33;102987.53;5051435;28;20120;-70
2021/09/02 01:04:04;;;;;;;7.07;3.58;;;;;;;15.60;75.51;102996.44;5050655;28;20096;-71
2021/09/02 01:06:29;;;;;;;9.73;4.30;;;;;;;15.58;75.52;102987.56;5050456;28;20039;-71
2021/09/02 01:08:56;;;;;;;7.78;3.97;;;;;;;15.55;75.33;102980.53;5050755;28;20107;-71
2021/09/02 01:11:22;;;;;;;8.40;4.13;;;;;;;15.55;75.34;102979.69;5051983;28;20108;-70
2021/09/02 01:13:48;;;;;;;7.53;4.00;;;;;;;15.57;75.43;102986.72;5050684;28;20112;-71
2021/09/02 01:16:13;;;;;;;10.07;4.40;;;;;;;15.54;74.12;102984.13;5050323;28;20132;-71
2021/09/02 01:18:38;;;;;;;7.30;4.18;;;;;;;15.55;74.59;102985.00;5050456;28;20060;-71
2021/09/02 01:21:04;;;;;;;9.50;4.15;;;;;;;15.56;74.99;102987.63;5052325;28;20040;-70
2021/09/02 01:23:34;;;;;;;8.80;4.22;;;;;;;15.55;75.17;102977.00;5049304;28;20441;-71
2021/09/02 01:26:00;;;;;;;7.47;4.50;;;;;;;15.54;74.91;102980.59;5049804;28;20438;-69
2021/09/02 01:28:25;;;;;;;7.78;4.20;;;;;;;15.56;75.58;102984.06;5050567;28;20124;-70
2021/09/02 01:30:51;;;;;;;8.60;4.32;;;;;;;15.60;75.19;102983.06;5050619;28;20141;-72
2021/09/02 01:33:17;;;;;;;10.73;4.75;;;;;;;15.57;75.49;102985.81;5050717;28;20061;-72
2021/09/02 01:35:43;;;;;;;8.38;4.20;;;;;;;15.60;75.15;102985.75;5050534;28;20085;-72
2021/09/02 01:38:10;;;;;;;7.53;4.57;;;;;;;15.58;75.18;102968.88;5031739;28;20029;-73
2021/09/02 01:40:41;;;;;;;8.82;4.90;;;;;;;15.59;75.50;102978.66;5050278;28;20025;-72
2021/09/02 01:43:08;;;;;;;9.27;4.97;;;;;;;15.60;74.94;102977.72;5051142;28;20029;-72
2021/09/02 01:45:35;;;;;;;10.15;4.57;;;;;;;15.61;74.52;102986.59;5049886;28;20043;-72
2021/09/02 01:48:02;;;;;;;8.80;4.80;;;;;;;15.56;74.38;102984.97;5049014;28;20036;-72
2021/09/02 01:50:29;;;;;;;8.73;4.45;;;;;;;15.62;73.26;102989.22;5050083;28;20025;-72
2021/09/02 01:52:57;;;;;;;9.50;4.55;;;;;;;15.58;73.20;102987.56;5051084;28;20039;-72
2021/09/02 01:55:24;;;;;;;10.30;4.45;;;;;;;15.54;74.53;102985.94;5031283;28;20029;-71
2021/09/02 01:57:50;;;;;;;6.45;4.25;;;;;;;15.55;73.93;102985.00;5048842;28;20036;-71
2021/09/02 02:00:16;;;;;;;7.53;3.95;;;;;;;15.54;72.42;102981.44;5049828;28;20048;-73
2021/09/02 02:02:42;;;;;;;9.90;4.05;;;;;;;15.52;71.25;102995.78;5050340;28;20096;-70
2021/09/02 02:05:09;;;;;;;9.65;4.18;;;;;;;15.57;72.48;102988.50;5049378;28;20116;-72
2021/09/02 02:07:35;;;;;;;10.65;4.03;;;;;;;15.57;72.19;102988.50;5049651;28;20020;-71
2021/09/02 02:10:05;;;;;;;8.40;4.05;;;;;;;15.57;71.30;102986.72;5048992;28;20071;-72
2021/09/02 02:12:30;;;;;;;8.95;3.85;;;;;;;15.56;72.39;102979.63;5048960;28;20105;-72
2021/09/02 02:14:55;;;;;;;8.27;4.40;;;;;;;15.51;71.86;102980.66;5070433;28;20035;-71
2021/09/02 02:17:20;;;;;;;8.98;4.43;;;;;;;15.51;71.39;102970.88;5069444;28;20033;-72
2021/09/02 02:19:46;;;;;;;9.30;4.30;;;;;;;15.52;72.12;102975.28;5068655;28;20033;-72
2021/09/02 02:22:11;;;;;;;8.90;4.22;;;;;;;15.55;72.32;102974.34;5069324;28;20086;-71
2021/09/02 02:24:36;;;;;;;7.32;4.18;;;;;;;15.54;72.45;102970.78;5070376;28;20048;-72
2021/09/02 02:27:02;;;;;;;9.02;4.32;;;;;;;15.48;73.21;102973.63;5069072;28;20055;-71
2021/09/02 02:29:27;;;;;;;7.20;4.07;;;;;;;15.48;72.97;102976.28;5068563;28;20052;-72
2021/09/02 02:31:53;;;;;;;8.57;4.90;;;;;;;15.46;72.35;102971.94;5068910;28;20072;-71
2021/09/02 02:34:18;;;;;;;10.27;4.60;;;;;;;15.50;72.71;102973.56;5068518;28;20107;-72
2021/09/02 02:36:43;;;;;;;10.07;5.00;;;;;;;15.50;72.94;102969.13;5070028;28;20028;-72
2021/09/02 02:39:10;;;;;;;9.07;4.00;;;;;;;15.49;72.57;102972.72;5068770;28;20392;-72
2021/09/02 02:41:35;;;;;;;9.63;4.80;;;;;;;15.48;72.50;102976.28;5068410;28;20115;-72
2021/09/02 02:44:00;;;;;;;9.48;4.50;;;;;;;15.45;73.29;102978.19;5068482;28;20435;-71
2021/09/02 02:46:26;;;;;;;8.98;4.63;;;;;;;15.41;73.80;102969.44;5070187;28;20040;-71
2021/09/02 02:48:51;;;;;;;8.23;4.93;;;;;;;15.41;74.02;102980.09;5068661;28;20040;-73
2021/09/02 02:51:17;;;;;;;12.70;4.80;;;;;;;15.38;73.83;102972.16;5067954;28;20036;-72
2021/09/02 02:53:42;;;;;;;9.52;4.90;;;;;;;15.34;74.35;102970.53;5050238;28;20495;-72
2021/09/02 02:56:08;;;;;;;9.02;4.32;;;;;;;15.33;74.37;102968.78;5069750;28;20035;-71
2021/09/02 02:58:33;;;;;;;12.45;4.95;;;;;;;15.31;74.13;102974.16;5068331;28;20066;-73
2021/09/02 03:00:59;;;;;;;8.85;5.03;;;;;;;15.34;74.21;102971.38;5068615;28;20059;-72
2021/09/02 03:03:24;;;;;;;9.35;4.32;;;;;;;15.32;74.17;102980.38;5069024;28;20099;-71
2021/09/02 03:05:49;;;;;;;9.40;5.00;;;;;;;15.32;75.14;102970.56;5068496;28;20491;-72
2021/09/02 03:08:15;;;;;;;12.02;5.25;;;;;;;15.31;74.01;102968.81;5069525;28;20063;-73
2021/09/02 03:10:40;;;;;;;9.43;5.13;;;;;;;15.32;73.95;102978.59;5067962;28;20148;-72
2021/09/02 03:13:06;;;;;;;9.20;5.00;;;;;;;15.34;74.38;102970.53;5068378;28;20033;-72
2021/09/02 03:15:32;;;;;;;10.52;5.03;;;;;;;15.32;75.08;102962.56;5068507;28;20016;-71
2021/09/02 03:17:59;;;;;;;9.77;4.80;;;;;;;15.30;74.88;102967.06;5069391;28;20045;-72
2021/09/02 03:20:24;;;;;;;12.25;5.20;;;;;;;15.30;73.24;102958.19;5067898;28;20445;-72
2021/09/02 03:22:50;;;;;;;9.18;4.63;;;;;;;15.31;73.77;102963.50;5067781;28;20028;-74
2021/09/02 03:25:15;;;;;;;7.30;4.80;;;;;;;15.31;74.43;102962.63;5068110;28;20052;-72
2021/09/02 03:27:41;;;;;;;9.70;4.65;;;;;;;15.30;74.56;102966.22;5068257;28;20100;-71
2021/09/02 03:30:08;;;;;;;13.40;5.20;;;;;;;15.28;74.46;102960.94;5086492;28;20032;-71
2021/09/02 03:32:33;;;;;;;9.93;5.03;;;;;;;15.28;74.60;102960.94;5075619;28;20152;-72
2021/09/02 03:34:59;;;;;;;13.10;5.18;;;;;;;15.29;75.18;102967.13;5068161;28;20027;-74
2021/09/02 03:37:24;;;;;;;10.63;5.28;;;;;;;15.27;75.68;102967.19;5067476;28;20105;-71
2021/09/02 03:39:49;;;;;;;8.98;4.97;;;;;;;15.26;75.32;102960.09;5069363;28;20028;-72
2021/09/02 03:42:15;;;;;;;11.55;5.15;;;;;;;15.27;76.52;102961.84;5067914;28;20116;-73
2021/09/02 03:44:40;;;;;;;10.90;5.13;;;;;;;15.24;75.75;102954.81;5067989;28;20337;-72
2021/09/02 03:47:05;;;;;;;11.63;5.38;;;;;;;15.22;75.72;102943.28;5067770;28;20425;-72
2021/09/02 03:49:31;;;;;;;13.18;5.05;;;;;;;15.27;75.63;102947.59;5050812;28;20377;-73
2021/09/02 03:51:56;;;;;;;8.73;5.05;;;;;;;15.28;75.62;102952.03;5066822;28;20450;-71
2021/09/02 03:54:21;;;;;;;11.55;5.53;;;;;;;15.26;76.31;102949.41;5048465;28;20108;-72
2021/09/02 03:56:48;;;;;;;11.13;5.13;;;;;;;15.26;75.82;102951.22;5029268;28;20066;-72
2021/09/02 03:59:13;;;;;;;10.55;5.30;;;;;;;15.22;76.11;102948.63;5029462;28;20101;-72
2021/09/02 04:01:38;;;;;;;9.90;5.22;;;;;;;15.21;76.99;102946.88;5065869;28;20070;-71
2021/09/02 04:04:04;;;;;;;12.43;5.70;;;;;;;15.21;75.55;102946.00;5068077;28;20446;-72
2021/09/02 04:06:29;;;;;;;9.40;5.60;;;;;;;15.24;74.84;102946.78;5067520;28;20052;-73
2021/09/02 04:08:54;;;;;;;9.07;5.28;;;;;;;15.21;75.03;102943.34;5067581;28;20108;-74
2021/09/02 04:11:20;;;;;;;10.18;5.43;;;;;;;15.18;75.38;102936.31;5068820;28;20207;-72
2021/09/02 04:13:45;;;;;;;12.00;5.60;;;;;;;15.19;74.92;102938.06;5067523;28;20202;-72
2021/09/02 04:16:10;;;;;;;10.27;5.53;;;;;;;15.20;75.26;102939.78;5067427;28;20047;-72
2021/09/02 04:18:36;;;;;;;11.43;5.40;;;;;;;15.16;75.93;102938.13;5067911;28;20103;-72
2021/09/02 04:21:04;;;;;;;13.75;5.20;;;;;;;15.15;75.89;102938.19;5068869;28;20029;-70
2021/09/02 04:23:32;;;;;;;11.05;5.45;;;;;;;15.14;76.52;102944.44;5048714;28;20033;-71
2021/09/02 04:25:58;;;;;;;11.63;5.47;;;;;;;15.16;75.59;102932.78;5067500;28;20068;-71
2021/09/02 04:28:23;;;;;;;9.98;5.32;;;;;;;15.20;73.82;102929.09;5067736;28;20055;-73
2021/09/02 04:30:48;;;;;;;10.65;4.68;;;;;;;15.21;73.51;102927.31;5067725;28;20170;-71
2021/09/02 04:33:14;;;;;;;9.48;4.93;;;;;;;15.16;73.61;102943.47;5069200;28;20133;-71
2021/09/02 04:35:40;;;;;;;8.63;4.80;;;;;;;15.13;74.06;102932.91;5067363;28;20064;-72
2021/09/02 04:38:05;;;;;;;10.43;5.10;;;;;;;15.11;73.88;102940.06;5067347;28;20044;-72
2021/09/02 04:40:30;;;;;;;10.90;5.10;;;;;;;15.14;73.96;102944.44;5067313;28;20028;-71
2021/09/02 04:42:56;;;;;;;12.73;5.88;;;;;;;15.18;72.69;102951.41;5068882;28;20024;-72
2021/09/02 04:45:21;;;;;;;10.93;5.03;;;;;;;15.23;72.01;102944.19;5066899;28;20036;-73
2021/09/02 04:47:49;;;;;;;11.65;4.88;;;;;;;15.29;72.23;102943.09;5067233;28;20024;-70
2021/09/02 04:50:15;;;;;;;11.80;5.00;;;;;;;15.33;71.76;102944.75;5067352;28;20063;-72
2021/09/02 04:52:40;;;;;;;8.80;4.75;;;;;;;15.35;72.07;102942.91;5067080;28;20060;-72
2021/09/02 04:55:06;;;;;;;11.45;5.55;;;;;;;15.33;72.80;102944.75;5067700;28;20329;-72
2021/09/02 04:57:31;;;;;;;8.10;4.35;;;;;;;15.29;73.48;102941.28;5067835;28;20118;-72
2021/09/02 04:59:57;;;;;;;10.25;5.30;;;;;;;15.30;73.23;102934.19;5070770;28;20084;-72
2021/09/02 05:02:22;;;;;;;10.13;5.20;;;;;;;15.28;73.94;102944.91;5070529;28;20119;-72
2021/09/02 05:04:47;;;;;;;10.77;4.78;;;;;;;15.24;74.56;102949.47;5071615;28;20111;-71
2021/09/02 05:07:12;;;;;;;11.65;5.32;;;;;;;15.21;74.77;102951.34;5070271;28;20028;-71
2021/09/02 05:09:38;;;;;;;10.23;4.82;;;;;;;15.21;72.61;102946.88;5070525;28;20028;-71
2021/09/02 05:12:03;;;;;;;11.50;5.03;;;;;;;15.27;73.03;102955.59;5070589;28;20104;-71
2021/09/02 05:14:29;;;;;;;13.02;5.63;;;;;;;15.24;71.80;102951.25;5071552;28;20290;-72
2021/09/02 05:16:54;;;;;;;10.27;5.20;;;;;;;15.30;71.25;102943.03;5069842;28;20128;-71
2021/09/02 05:19:20;;;;;;;13.05;5.93;;;;;;;15.32;71.07;102945.66;5070067;28;20041;-71
2021/09/02 05:21:45;;;;;;;9.40;5.28;;;;;;;15.34;72.09;102942.03;5070379;28;20098;-71
2021/09/02 05:24:10;;;;;;;12.30;5.72;;;;;;;15.39;73.28;102939.22;5069934;28;20040;-71
2021/09/02 05:26:36;;;;;;;11.98;5.68;;;;;;;15.35;73.24;102940.25;5079593;28;20182;-71
2021/09/02 05:29:01;;;;;;;10.43;5.30;;;;;;;15.33;73.74;102942.97;5069658;28;20236;-71
2021/09/02 05:31:27;;;;;;;11.95;5.70;;;;;;;15.32;74.34;102935.88;5069445;28;20100;-71
2021/09/02 05:33:52;;;;;;;12.23;5.55;;;;;;;15.34;73.58;102946.50;5069822;28;20040;-71
2021/09/02 05:36:18;;;;;;;14.00;5.43;;;;;;;15.35;72.77;102945.59;5070985;28;20024;-71
2021/09/02 05:38:43;;;;;;;12.98;5.72;;;;;;;15.37;74.04;102941.06;5074398;28;20040;-70
2021/09/02 05:41:09;;;;;;;11.32;5.90;;;;;;;15.39;73.37;102948.09;5069457;28;20032;-70
2021/09/02 05:43:34;;;;;;;17.75;6.28;;;;;;;15.42;73.11;102944.44;5070265;28;20120;-71
2021/09/02 05:45:59;;;;;;;11.93;5.25;;;;;;;15.48;73.12;102944.25;5069897;28;20143;-70
2021/09/02 05:48:25;;;;;;;13.88;5.90;;;;;;;15.50;74.29;102947.75;5057047;28;20087;-71
2021/09/02 05:50:52;;;;;;;12.77;6.03;;;;;;;15.49;73.85;102946.00;5057426;28;20119;-71
2021/09/02 05:53:18;;;;;;;17.92;6.38;;;;;;;15.53;73.06;102946.78;5049654;28;20093;-70
2021/09/02 05:55:43;;;;;;;12.30;5.38;;;;;;;15.59;73.55;102943.03;5056173;28;20450;-71
2021/09/02 05:58:09;;;;;;;14.43;6.90;;;;;;;15.64;72.32;102939.31;5069406;28;20070;-70
2021/09/02 06:00:34;;;;;;;12.35;6.03;;;;;;;15.71;72.93;102939.97;5069278;28;20058;-69
2021/09/02 06:02:59;;;;;;;13.05;6.22;;;;;;;15.74;73.08;102947.88;5062650;28;20108;-71
2021/09/02 06:05:26;;;;;;;12.75;6.75;;;;;;;15.78;74.28;102944.19;5076690;28;20447;-76
2021/09/02 06:07:51;;;;;;;15.13;6.53;;;;;;;15.80;73.44;102936.13;5088821;28;20043;-76
2021/09/02 06:10:17;;;;;;;17.52;7.22;;;;;;;15.81;73.19;102932.53;5071266;28;20040;-76
2021/09/02 06:12:42;;;;;;;13.85;6.78;;;;;;;15.79;73.83;102935.25;5070674;28;20051;-76
2021/09/02 06:15:09;;;;;;;15.77;6.68;;;;;;;15.82;73.80;102940.53;5070635;28;20016;-74
2021/09/02 06:17:34;;;;;;;15.80;6.95;;;;;;;15.82;73.70;102939.63;5067647;28;20100;-74
2021/09/02 06:20:00;;;;;;;13.70;7.05;;;;;;;15.81;73.66;102938.78;5073019;28;20143;-75
2021/09/02 06:22:25;;;;;;;14.60;6.80;;;;;;;15.85;74.23;102953.78;5069785;28;20054;-76
2021/09/02 06:24:50;;;;;;;16.42;7.05;;;;;;;15.91;74.29;102950.03;5069317;28;20056;-75
2021/09/02 06:27:16;;;;;;;15.55;7.43;;;;;;;15.96;74.66;102949.88;5069410;28;20028;-75
2021/09/02 06:29:41;;;;;;;15.82;7.50;;;;;;;15.99;74.64;102949.78;5069699;28;20051;-73
2021/09/02 06:32:07;;;;;;;17.17;6.85;;;;;;;16.03;74.11;102952.28;5072475;28;20186;-71
2021/09/02 06:34:32;;;;;;;15.95;7.45;;;;;;;16.13;74.07;102949.31;5073042;28;20024;-75
2021/09/02 06:36:57;;;;;;;12.98;7.30;;;;;;;16.15;74.38;102942.97;5063048;28;20050;-74
2021/09/02 06:39:23;;;;;;;18.55;8.27;;;;;;;16.18;74.12;102944.66;5067137;28;20127;-73
2021/09/02 06:41:48;;;;;;;16.52;7.95;;;;;;;16.17;74.39;102948.28;5066225;28;20035;-74
2021/09/02 06:44:13;;;;;;;16.52;8.05;;;;;;;16.23;74.35;102950.72;5088644;28;20126;-75
2021/09/02 06:46:39;;;;;;;18.02;8.27;;;;;;;16.39;73.49;102945.69;5077323;28;20115;-74
2021/09/02 06:49:04;;;;;;;19.27;8.20;;;;;;;16.43;73.52;102952.69;5088243;28;20131;-71
2021/09/02 06:51:29;;;;;;;20.40;8.43;;;;;;;16.49;73.67;102956.94;5088975;28;20109;-73
2021/09/02 06:53:55;;;;;;;19.33;8.63;;;;;;;16.61;73.51;102945.81;5069985;28;20068;-73
2021/09/02 06:56:20;;;;;;;18.42;8.65;;;;;;;16.71;71.99;102941.88;5071591;28;20334;-71
2021/09/02 06:58:46;;;;;;;15.85;7.72;;;;;;;16.81;70.93;102945.03;5076758;28;20417;-72
2021/09/02 07:01:13;;;;;;;19.88;7.45;;;;;;;16.98;70.90;102940.88;5067028;28;20107;-71
2021/09/02 07:03:40;;;;;;;13.43;7.25;;;;;;;17.09;70.92;102946.72;5066290;28;20040;-73
2021/09/02 07:06:05;;;;;;;16.70;7.20;;;;;;;17.19;69.67;102955.25;5068592;28;20036;-72
2021/09/02 07:08:31;;;;;;;13.63;6.60;;;;;;;17.29;67.34;102947.72;5069547;28;20341;-73
2021/09/02 07:10:56;;;;;;;15.02;6.45;;;;;;;17.32;66.40;102944.94;5084933;28;20020;-72
2021/09/02 07:13:21;;;;;;;12.45;6.20;;;;;;;17.30;65.82;102941.44;5088525;28;20105;-71
2021/09/02 07:15:47;;;;;;;11.70;6.28;;;;;;;17.31;65.42;102943.19;5087704;28;20132;-72
2021/09/02 07:18:12;;;;;;;11.93;6.35;;;;;;;17.33;65.26;102946.69;5070415;28;20050;-73
2021/09/02 07:20:38;;;;;;;13.45;6.22;;;;;;;17.33;67.12;102944.88;5084876;28;20020;-72
2021/09/02 07:23:03;;;;;;;12.90;5.57;;;;;;;17.38;62.80;102947.38;5084870;28;20027;-73
2021/09/02 07:25:28;;;;;;;11.70;5.80;;;;;;;17.35;64.14;102952.84;5075161;28;20563;-72
2021/09/02 07:27:54;;;;;;;11.70;5.65;;;;;;;17.41;63.80;102946.38;5081743;28;20031;-72
2021/09/02 07:30:19;;;;;;;14.13;6.50;;;;;;;17.40;63.80;102952.66;5068428;28;20116;-71
2021/09/02 07:32:45;;;;;;;14.88;6.90;;;;;;;17.36;64.36;102954.59;5069800;28;20020;-70
2021/09/02 07:35:10;;;;;;;15.15;6.28;;;;;;;17.39;65.02;102953.59;5062867;28;20924;-72
2021/09/02 07:37:35;;;;;;;13.55;6.70;;;;;;;17.39;64.48;102946.41;5071871;28;20094;-68
2021/09/02 07:40:01;;;;;;;15.88;7.25;;;;;;;17.42;64.62;102957.03;5087262;28;20078;-70
2021/09/02 07:42:26;;;;;;;13.65;6.80;;;;;;;17.56;65.83;102959.16;5073812;28;20111;-71
2021/09/02 07:44:51;;;;;;;15.73;6.88;;;;;;;17.78;65.02;102960.94;5068877;28;20036;-69
2021/09/02 07:47:17;;;;;;;14.40;6.68;;;;;;;17.86;63.70;102964.16;5069003;28;20444;-69
2021/09/02 07:49:42;;;;;;;16.02;5.88;;;;;;;17.90;63.58;102967.59;5069387;28;20031;-73
2021/09/02 07:52:09;;;;;;;11.23;5.68;;;;;;;17.95;61.55;102969.16;5068444;28;20035;-71
2021/09/02 07:54:35;;;;;;;13.15;5.95;;;;;;;18.05;61.86;102966.13;5070304;28;20417;-69
2021/09/02 07:57:00;;;;;;;12.50;6.60;;;;;;;18.00;64.32;102972.53;5068112;28;20047;-71
2021/09/02 07:59:26;;;;;;;16.65;6.53;;;;;;;18.15;64.44;102971.00;5067384;28;20020;-65
2021/09/02 08:01:51;;;;;;;15.45;5.93;;;;;;;18.19;63.48;102969.06;5072119;28;20344;-71
2021/09/02 08:04:16;;;;;;;16.05;5.80;;;;;;;18.28;62.71;102965.97;5080167;28;20055;-70
2021/09/02 08:06:42;;;;;;;13.57;5.60;;;;;;;18.31;62.87;102971.22;5088119;28;20084;-68
2021/09/02 08:09:07;;;;;;;12.07;5.97;;;;;;;18.37;62.41;102979.94;5076835;28;20033;-69
2021/09/02 08:11:32;;;;;;;10.35;4.95;;;;;;;18.44;61.61;102974.22;5067510;28;20110;-67
2021/09/02 08:13:59;;;;;;;12.88;5.53;;;;;;;18.44;59.50;102971.56;5076622;28;20408;-68
2021/09/02 08:16:25;;;;;;;9.35;5.20;;;;;;;18.56;59.60;102980.84;5083038;28;20033;-69
2021/09/02 08:18:51;;;;;;;10.43;4.85;;;;;;;18.64;59.63;102975.16;5067790;28;20111;-72
2021/09/02 08:21:17;;;;;;;13.07;5.38;;;;;;;18.67;59.07;102966.97;5069573;28;20095;-73
2021/09/02 08:23:42;;;;;;;12.95;5.30;;;;;;;18.74;58.92;102975.63;5069175;28;20044;-68
2021/09/02 08:26:09;;;;;;;11.25;5.38;;;;;;;18.79;57.33;102969.06;5077986;28;20419;-72
2021/09/02 08:28:36;;;;;;;14.02;5.45;;;;;;;18.82;57.98;102977.00;5071688;28;20497;-66
2021/09/02 08:31:01;;;;;;;9.25;5.22;;;;;;;18.95;58.61;102976.44;5068036;28;20029;-75
2021/09/02 08:33:28;;;;;;;12.65;5.55;;;;;;;19.01;57.95;102972.63;5071662;28;20020;-68
2021/09/02 08:35:53;;;;;;;12.07;6.15;;;;;;;19.00;56.97;102971.75;5077785;28;20036;-68
2021/09/02 08:38:20;;;;;;;10.18;5.40;;;;;;;18.88;56.19;102977.66;5091996;28;20081;-69
2021/09/02 08:40:46;;;;;;;14.23;6.55;;;;;;;18.79;58.84;102970.91;5077317;28;20114;-73
2021/09/02 08:43:11;;;;;;;12.32;5.55;;;;;;;18.96;57.86;102970.16;5072068;28;20528;-76
2021/09/02 08:45:37;;;;;;;13.25;5.72;;;;;;;18.79;57.85;102979.81;5084546;28;20055;-67
2021/09/02 08:48:03;;;;;;;11.10;5.65;;;;;;;18.91;58.77;102974.84;5082162;28;20032;-70
2021/09/02 08:50:32;;;;;;;14.32;5.80;;;;;;;18.97;56.27;102979.94;5071491;28;20456;-69
2021/09/02 08:52:58;;;;;;;12.57;5.65;;;;;;;19.02;57.39;102977.91;5071725;28;20093;-69
2021/09/02 08:55:24;;;;;;;13.65;6.28;;;;;;;19.12;57.15;102978.38;5071200;28;20107;-67
2021/09/02 08:57:51;;;;;;;14.50;5.80;;;;;;;18.96;56.92;102976.41;5072125;28;20044;-72
2021/09/02 09:00:17;;;;;;;12.43;6.00;;;;;;;18.86;59.31;102983.06;5085196;28;20127;-75
2021/09/02 09:02:45;;;;;;;15.98;6.10;;;;;;;18.84;57.63;102987.66;5077044;28;20063;-71
2021/09/02 09:05:13;;;;;;;12.00;5.47;;;;;;;18.81;57.10;102979.75;5071615;28;20124;-70
2021/09/02 09:07:45;;;;;;;16.60;5.90;;;;;;;18.94;57.02;102977.38;5076810;28;20055;-68
2021/09/02 09:10:20;;;;;;;11.60;6.18;;;;;;;18.85;58.34;102981.38;5091023;28;20046;-68
2021/09/02 09:12:55;;;;;;;12.90;6.00;;;;;;;18.97;57.96;102994.22;5091803;28;20051;-68
2021/09/02 09:15:23;;;;;;;13.48;5.90;;;;;;;19.08;57.18;102995.53;5090637;28;20450;-70
2021/09/02 09:17:51;;;;;;;11.65;5.30;;;;;;;18.98;57.06;102995.97;5081279;28;20115;-69
2021/09/02 09:20:18;;;;;;;14.65;5.32;;;;;;;19.00;58.34;102993.22;5072354;28;20029;-71
2021/09/02 09:22:48;;;;;;;13.98;5.88;;;;;;;18.94;59.08;102982.75;5075090;28;20032;-70
2021/09/02 09:25:13;;;;;;;13.35;6.22;;;;;;;18.85;58.91;102986.72;5088284;28;20048;-71
2021/09/02 09:27:55;;;;;;;17.27;7.78;;;;;;;18.65;60.41;102988.50;5074062;28;20036;-69
2021/09/02 09:30:22;;;;;;;16.70;6.65;;;;;;;18.66;60.90;102982.19;5078889;28;20089;-69
2021/09/02 09:32:50;;;;;;;15.10;6.28;;;;;;;18.82;60.00;102978.81;5088854;28;20043;-69
2021/09/02 09:35:22;;;;;;;18.60;7.45;;;;;;;18.92;59.72;102984.66;5083892;28;20038;-69
2021/09/02 09:37:49;;;;;;;12.98;5.90;;;;;;;19.06;59.39;102978.66;5070750;28;20083;-71
2021/09/02 09:40:16;;;;;;;20.35;8.13;;;;;;;19.15;59.16;102976.38;5082944;28;20016;-71
2021/09/02 09:43:13;;;;;;;18.60;7.47;;;;;;;19.14;60.70;102985.41;5057637;28;20025;-68
2021/09/02 09:45:55;;;;;;;16.65;7.60;;;;;;;19.23;60.78;102978.72;5061199;28;20028;-70
2021/09/02 09:48:20;;;;;;;16.83;8.63;;;;;;;19.17;60.75;102973.66;5072538;28;20039;-70
2021/09/02 09:51:03;;;;;;;19.38;8.05;;;;;;;19.01;61.47;102978.84;5075267;28;20052;-72
2021/09/02 09:53:29;;;;;;;26.83;9.13;;;;;;;19.16;61.83;102967.41;5070443;28;20179;-71
2021/09/02 09:55:55;;;;;;;18.15;7.18;;;;;;;19.35;59.00;102969.22;5069721;28;20065;-72
2021/09/02 09:58:26;;;;;;;13.80;6.05;;;;;;;19.57;56.86;102970.84;5075556;28;20095;-70
2021/09/02 10:00:56;;;;;;;;;;;;;;;19.46;57.56;102972.25;5065530;28;20036;-71
2021/09/02 10:03:22;;;;;;;15.23;6.10;;;;;;;19.62;55.96;102972.34;5065858;28;19916;-70
2021/09/02 10:05:48;;;;;;;13.07;5.88;;;;;;;19.62;55.53;102971.50;5070552;28;20046;-72
2021/09/02 10:08:19;;;;;;;13.15;6.50;;;;;;;19.87;56.17;102967.59;5076453;28;20442;-68
2021/09/02 10:10:47;;;;;;;12.60;5.80;;;;;;;20.21;54.53;102976.66;5067303;28;20093;-71
2021/09/02 10:13:13;;;;;;;16.45;5.85;;;;;;;20.38;52.88;102965.00;5069829;28;20466;-71
2021/09/02 10:15:39;;;;;;;12.52;5.65;;;;;;;20.26;54.64;102962.00;5072686;28;20032;-69
2021/09/02 10:18:06;;;;;;;13.68;5.75;;;;;;;20.39;54.03;102955.97;5089816;28;20424;-68
2021/09/02 10:20:34;;;;;;;13.98;6.95;;;;;;;20.84;53.02;102962.53;5072481;28;20024;-71
2021/09/02 10:23:02;;;;;;;15.05;6.88;;;;;;;21.02;51.64;102963.34;5086913;28;20444;-71
2021/09/02 10:25:38;;;;;;;11.13;5.55;;;;;;;20.96;52.32;102961.00;5087810;28;20167;-70
2021/09/02 10:28:16;;;;;;;13.13;6.30;;;;;;;21.34;49.95;102959.81;5059103;28;20040;-71
2021/09/02 10:30:46;;;;;;;13.32;5.85;;;;;;;21.57;49.32;102956.69;5074886;28;20120;-70
2021/09/02 10:33:34;;;;;;;14.18;6.05;;;;;;;21.79;49.03;102950.03;5072796;28;20044;-71
2021/09/02 10:36:01;;;;;;;13.43;6.20;;;;;;;21.82;49.55;102944.47;5069456;28;20029;-72
2021/09/02 10:38:38;;;;;;;16.48;6.10;;;;;;;22.20;48.70;102948.50;5079455;28;20024;-69
2021/09/02 10:41:05;;;;;;;12.07;5.47;;;;;;;21.99;48.30;102938.03;5074511;28;20028;-71
2021/09/02 10:43:51;;;;;;;12.80;5.63;;;;;;;22.42;47.71;102945.38;5069721;28;20028;-71
2021/09/02 10:46:30;;;;;;;13.25;6.05;;;;;;;22.57;45.71;102935.44;5069261;28;20070;-71
2021/09/02 10:49:16;;;;;;;12.35;6.03;;;;;;;22.71;45.47;102939.97;5070730;28;20421;-71
2021/09/02 10:51:45;;;;;;;11.00;5.60;;;;;;;22.67;45.45;102947.41;5053040;28;20455;-71
2021/09/02 10:54:11;;;;;;;11.38;5.93;;;;;;;22.89;46.12;102948.72;5069563;28;20110;-70
2021/09/02 10:56:59;;;;;;;11.88;6.05;;;;;;;22.68;47.15;102946.44;5069151;28;20099;-68
2021/09/02 10:59:37;;;;;;;13.43;6.15;;;;;;;22.90;46.28;102942.38;5070111;28;20146;-71
2021/09/02 11:02:05;;;;;;;20.50;6.07;;;;;;;22.79;46.11;102948.47;5069357;28;20094;-72
2021/09/02 11:04:31;;;;;;;10.23;5.78;;;;;;;22.54;46.12;102949.16;5068585;28;20120;-69
2021/09/02 11:06:56;;;;;;;13.68;6.28;;;;;;;22.55;46.63;102942.78;5068966;28;20117;-69
2021/09/02 11:09:29;;;;;;;11.75;5.70;;;;;;;22.44;47.08;102945.28;5070480;28;20094;-77
2021/09/02 11:11:55;;;;;;;13.40;5.97;;;;;;;22.45;46.25;102947.88;5078103;28;20033;-72
2021/09/02 11:14:20;;;;;;;13.07;5.72;;;;;;;22.21;46.84;102943.03;5086501;28;20124;-76
2021/09/02 11:16:46;;;;;;;15.15;6.22;;;;;;;21.98;48.79;102938.13;5089156;28;20332;-69